sensor_id;sensor_type;location;lat;lon;timestamp;temperature;humidity
3602;DHT22;1815;50.950;6.920;2023-08-06T00:00:27;18.50;99.90
3602;DHT22;1815;50.950;6.920;2023-08-06T00:02:53;18.50;99.90
3602;DHT22;1815;50.950;6.920;2023-08-06T00:05:19;18.40;99.90
3602;DHT22;1815;50.950;6.920;2023-08-06T00:07:47;18.40;99.90
3602;DHT22;1815;50.950;6.920;2023-08-06T00:10:13;18.40;99.90
3602;DHT22;1815;50.950;6.920;2023-08-06T00:12:39;18.30;99.90
3602;DHT22;1815;50.950;6.920;2023-08-06T00:15:05;18.30;99.90
3602;DHT22;1815;50.950;6.920;2023-08-06T00:17:31;18.20;99.90
3602;DHT22;1815;50.950;6.920;2023-08-06T00:19:57;18.20;99.90
3602;DHT22;1815;50.950;6.920;2023-08-06T00:22:22;18.10;99.90
3602;DHT22;1815;50.950;6.920;2023-08-06T00:24:48;18.10;99.90
3602;DHT22;1815;50.950;6.920;2023-08-06T00:27:14;18.00;99.90
3602;DHT22;1815;50.950;6.920;2023-08-06T00:29:39;18.00;99.90
3602;DHT22;1815;50.950;6.920;2023-08-06T00:32:05;17.90;99.90
3602;DHT22;1815;50.950;6.920;2023-08-06T00:34:31;17.90;99.90
3602;DHT22;1815;50.950;6.920;2023-08-06T00:36:57;17.90;99.90
3602;DHT22;1815;50.950;6.920;2023-08-06T00:39:22;17.90;99.90
3602;DHT22;1815;50.950;6.920;2023-08-06T00:41:49;17.80;99.90
3602;DHT22;1815;50.950;6.920;2023-08-06T00:44:14;17.80;99.90
3602;DHT22;1815;50.950;6.920;2023-08-06T00:46:40;17.80;99.90
3602;DHT22;1815;50.950;6.920;2023-08-06T00:49:06;17.80;99.90
3602;DHT22;1815;50.950;6.920;2023-08-06T00:51:33;17.70;99.90
3602;DHT22;1815;50.950;6.920;2023-08-06T00:53:59;17.70;99.90
3602;DHT22;1815;50.950;6.920;2023-08-06T00:56:25;17.70;99.90
3602;DHT22;1815;50.950;6.920;2023-08-06T00:58:52;17.60;99.90
3602;DHT22;1815;50.950;6.920;2023-08-06T01:01:18;17.70;99.90
3602;DHT22;1815;50.950;6.920;2023-08-06T01:03:44;17.70;99.90
3602;DHT22;1815;50.950;6.920;2023-08-06T01:06:10;17.70;99.90
3602;DHT22;1815;50.950;6.920;2023-08-06T01:11:38;17.80;99.90
3602;DHT22;1815;50.950;6.920;2023-08-06T01:14:21;17.70;99.90
3602;DHT22;1815;50.950;6.920;2023-08-06T01:16:50;17.80;99.90
3602;DHT22;1815;50.950;6.920;2023-08-06T01:19:20;17.80;99.90
3602;DHT22;1815;50.950;6.920;2023-08-06T01:21:45;17.90;99.90
3602;DHT22;1815;50.950;6.920;2023-08-06T01:24:11;17.90;99.90
3602;DHT22;1815;50.950;6.920;2023-08-06T01:26:42;17.90;99.90
3602;DHT22;1815;50.950;6.920;2023-08-06T01:31:48;18.00;99.90
3602;DHT22;1815;50.950;6.920;2023-08-06T01:34:25;18.00;99.90
3602;DHT22;1815;50.950;6.920;2023-08-06T01:36:52;18.00;99.90
3602;DHT22;1815;50.950;6.920;2023-08-06T01:39:18;18.00;99.90
3602;DHT22;1815;50.950;6.920;2023-08-06T01:41:47;17.90;99.90
3602;DHT22;1815;50.950;6.920;2023-08-06T01:44:14;17.90;99.90
3602;DHT22;1815;50.950;6.920;2023-08-06T01:46:40;17.90;99.90
3602;DHT22;1815;50.950;6.920;2023-08-06T01:49:06;17.90;99.90
3602;DHT22;1815;50.950;6.920;2023-08-06T01:51:32;17.90;99.90
3602;DHT22;1815;50.950;6.920;2023-08-06T01:53:58;17.90;99.90
3602;DHT22;1815;50.950;6.920;2023-08-06T01:56:24;17.90;99.90
3602;DHT22;1815;50.950;6.920;2023-08-06T01:58:50;17.90;99.90
3602;DHT22;1815;50.950;6.920;2023-08-06T02:01:16;17.90;99.90
3602;DHT22;1815;50.950;6.920;2023-08-06T02:03:42;17.90;99.90
3602;DHT22;1815;50.950;6.920;2023-08-06T02:06:09;17.80;99.90
3602;DHT22;1815;50.950;6.920;2023-08-06T02:08:35;17.80;99.90
3602;DHT22;1815;50.950;6.920;2023-08-06T02:11:01;17.80;99.90
3602;DHT22;1815;50.950;6.920;2023-08-06T02:13:30;17.80;99.90
3602;DHT22;1815;50.950;6.920;2023-08-06T02:15:55;17.80;99.90
3602;DHT22;1815;50.950;6.920;2023-08-06T02:18:21;17.80;99.90
3602;DHT22;1815;50.950;6.920;2023-08-06T02:20:59;17.80;99.90
3602;DHT22;1815;50.950;6.920;2023-08-06T02:23:25;17.70;99.90
3602;DHT22;1815;50.950;6.920;2023-08-06T02:28:24;17.70;99.90
3602;DHT22;1815;50.950;6.920;2023-08-06T02:30:51;17.70;99.90
3602;DHT22;1815;50.950;6.920;2023-08-06T02:33:16;17.70;99.90
3602;DHT22;1815;50.950;6.920;2023-08-06T02:35:43;17.70;99.90
3602;DHT22;1815;50.950;6.920;2023-08-06T02:38:09;17.70;99.90
3602;DHT22;1815;50.950;6.920;2023-08-06T02:40:34;17.70;99.90
3602;DHT22;1815;50.950;6.920;2023-08-06T02:43:00;17.70;99.90
3602;DHT22;1815;50.950;6.920;2023-08-06T02:45:26;17.70;99.90
3602;DHT22;1815;50.950;6.920;2023-08-06T02:47:52;17.80;99.90
3602;DHT22;1815;50.950;6.920;2023-08-06T02:50:17;17.80;99.90
3602;DHT22;1815;50.950;6.920;2023-08-06T02:52:43;17.80;99.90
3602;DHT22;1815;50.950;6.920;2023-08-06T02:55:09;17.80;99.90
3602;DHT22;1815;50.950;6.920;2023-08-06T02:57:40;17.90;99.90
3602;DHT22;1815;50.950;6.920;2023-08-06T03:00:06;17.80;99.90
3602;DHT22;1815;50.950;6.920;2023-08-06T03:02:32;17.80;99.90
3602;DHT22;1815;50.950;6.920;2023-08-06T03:05:12;17.90;99.90
3602;DHT22;1815;50.950;6.920;2023-08-06T03:07:42;17.90;99.90
3602;DHT22;1815;50.950;6.920;2023-08-06T03:10:17;17.90;99.90
3602;DHT22;1815;50.950;6.920;2023-08-06T03:12:43;17.90;99.90
3602;DHT22;1815;50.950;6.920;2023-08-06T03:15:09;17.90;99.90
3602;DHT22;1815;50.950;6.920;2023-08-06T03:17:35;17.90;99.90
3602;DHT22;1815;50.950;6.920;2023-08-06T03:20:03;17.90;99.90
3602;DHT22;1815;50.950;6.920;2023-08-06T03:22:29;17.90;99.90
3602;DHT22;1815;50.950;6.920;2023-08-06T03:24:55;17.90;99.90
3602;DHT22;1815;50.950;6.920;2023-08-06T03:27:24;17.90;99.90
3602;DHT22;1815;50.950;6.920;2023-08-06T03:29:52;18.00;99.90
3602;DHT22;1815;50.950;6.920;2023-08-06T03:32:21;18.00;99.90
3602;DHT22;1815;50.950;6.920;2023-08-06T03:34:47;17.90;99.90
3602;DHT22;1815;50.950;6.920;2023-08-06T03:37:13;17.90;99.90
3602;DHT22;1815;50.950;6.920;2023-08-06T03:39:39;17.90;99.90
3602;DHT22;1815;50.950;6.920;2023-08-06T03:42:05;17.80;99.90
3602;DHT22;1815;50.950;6.920;2023-08-06T03:44:31;17.80;99.90
3602;DHT22;1815;50.950;6.920;2023-08-06T03:46:57;17.70;99.90
3602;DHT22;1815;50.950;6.920;2023-08-06T03:49:22;17.70;99.90
3602;DHT22;1815;50.950;6.920;2023-08-06T03:51:48;17.60;99.90
3602;DHT22;1815;50.950;6.920;2023-08-06T03:54:14;17.50;99.90
3602;DHT22;1815;50.950;6.920;2023-08-06T03:56:39;17.50;99.90
3602;DHT22;1815;50.950;6.920;2023-08-06T03:59:05;17.50;99.90
3602;DHT22;1815;50.950;6.920;2023-08-06T04:01:31;17.40;99.90
3602;DHT22;1815;50.950;6.920;2023-08-06T04:03:57;17.30;99.90
3602;DHT22;1815;50.950;6.920;2023-08-06T04:06:23;17.30;99.90
3602;DHT22;1815;50.950;6.920;2023-08-06T04:08:48;17.20;99.90
3602;DHT22;1815;50.950;6.920;2023-08-06T04:11:14;17.20;99.90
3602;DHT22;1815;50.950;6.920;2023-08-06T04:13:44;17.20;99.90
3602;DHT22;1815;50.950;6.920;2023-08-06T04:16:10;17.10;99.90
3602;DHT22;1815;50.950;6.920;2023-08-06T04:18:36;17.10;99.90
3602;DHT22;1815;50.950;6.920;2023-08-06T04:21:02;17.10;99.90
3602;DHT22;1815;50.950;6.920;2023-08-06T04:23:28;17.10;99.90
3602;DHT22;1815;50.950;6.920;2023-08-06T04:25:58;17.10;99.90
3602;DHT22;1815;50.950;6.920;2023-08-06T04:28:26;17.00;99.90
3602;DHT22;1815;50.950;6.920;2023-08-06T04:30:52;17.00;99.90
3602;DHT22;1815;50.950;6.920;2023-08-06T04:33:20;17.00;99.90
3602;DHT22;1815;50.950;6.920;2023-08-06T04:35:46;17.00;99.90
3602;DHT22;1815;50.950;6.920;2023-08-06T04:38:12;17.00;99.90
3602;DHT22;1815;50.950;6.920;2023-08-06T04:40:38;17.00;99.90
3602;DHT22;1815;50.950;6.920;2023-08-06T04:43:04;17.00;99.90
3602;DHT22;1815;50.950;6.920;2023-08-06T04:45:33;17.00;99.90
3602;DHT22;1815;50.950;6.920;2023-08-06T04:47:58;17.00;99.90
3602;DHT22;1815;50.950;6.920;2023-08-06T04:50:24;17.00;99.90
3602;DHT22;1815;50.950;6.920;2023-08-06T04:52:50;17.00;99.90
3602;DHT22;1815;50.950;6.920;2023-08-06T04:55:15;17.10;99.90
3602;DHT22;1815;50.950;6.920;2023-08-06T04:57:41;17.10;99.90
3602;DHT22;1815;50.950;6.920;2023-08-06T05:00:07;17.10;99.90
3602;DHT22;1815;50.950;6.920;2023-08-06T05:02:33;17.20;99.90
3602;DHT22;1815;50.950;6.920;2023-08-06T05:05:00;17.20;99.90
3602;DHT22;1815;50.950;6.920;2023-08-06T05:07:26;17.20;99.90
3602;DHT22;1815;50.950;6.920;2023-08-06T05:09:52;17.20;99.90
3602;DHT22;1815;50.950;6.920;2023-08-06T05:12:18;17.20;99.90
3602;DHT22;1815;50.950;6.920;2023-08-06T05:14:43;17.30;99.90
3602;DHT22;1815;50.950;6.920;2023-08-06T05:17:09;17.30;99.90
3602;DHT22;1815;50.950;6.920;2023-08-06T05:19:35;17.30;99.90
3602;DHT22;1815;50.950;6.920;2023-08-06T05:22:00;17.30;99.90
3602;DHT22;1815;50.950;6.920;2023-08-06T05:24:27;17.40;99.90
3602;DHT22;1815;50.950;6.920;2023-08-06T05:26:53;17.50;99.90
3602;DHT22;1815;50.950;6.920;2023-08-06T05:29:18;17.50;99.90
3602;DHT22;1815;50.950;6.920;2023-08-06T05:31:44;17.60;99.90
3602;DHT22;1815;50.950;6.920;2023-08-06T05:34:10;17.60;99.90
3602;DHT22;1815;50.950;6.920;2023-08-06T05:36:36;17.70;99.90
3602;DHT22;1815;50.950;6.920;2023-08-06T05:39:02;17.70;99.90
3602;DHT22;1815;50.950;6.920;2023-08-06T05:41:27;17.70;99.90
3602;DHT22;1815;50.950;6.920;2023-08-06T05:43:53;17.70;99.90
3602;DHT22;1815;50.950;6.920;2023-08-06T05:46:19;17.70;99.90
3602;DHT22;1815;50.950;6.920;2023-08-06T05:48:44;17.80;99.90
3602;DHT22;1815;50.950;6.920;2023-08-06T05:51:10;17.80;99.90
3602;DHT22;1815;50.950;6.920;2023-08-06T05:53:38;17.90;99.90
3602;DHT22;1815;50.950;6.920;2023-08-06T05:56:04;17.90;99.90
3602;DHT22;1815;50.950;6.920;2023-08-06T05:58:29;17.90;99.90
3602;DHT22;1815;50.950;6.920;2023-08-06T06:00:56;18.00;99.90
3602;DHT22;1815;50.950;6.920;2023-08-06T06:03:22;18.00;99.90
3602;DHT22;1815;50.950;6.920;2023-08-06T06:05:47;18.00;99.90
3602;DHT22;1815;50.950;6.920;2023-08-06T06:08:13;17.90;99.90
3602;DHT22;1815;50.950;6.920;2023-08-06T06:10:39;17.90;99.90
3602;DHT22;1815;50.950;6.920;2023-08-06T06:13:04;18.00;99.90
3602;DHT22;1815;50.950;6.920;2023-08-06T06:15:30;17.90;99.90
3602;DHT22;1815;50.950;6.920;2023-08-06T06:17:56;17.90;99.90
3602;DHT22;1815;50.950;6.920;2023-08-06T06:20:22;17.90;99.90
3602;DHT22;1815;50.950;6.920;2023-08-06T06:22:47;18.00;99.90
3602;DHT22;1815;50.950;6.920;2023-08-06T06:25:13;17.90;99.90
3602;DHT22;1815;50.950;6.920;2023-08-06T06:27:39;18.00;99.90
3602;DHT22;1815;50.950;6.920;2023-08-06T06:30:05;18.00;99.90
3602;DHT22;1815;50.950;6.920;2023-08-06T06:32:31;18.00;99.90
3602;DHT22;1815;50.950;6.920;2023-08-06T06:34:57;18.10;99.90
3602;DHT22;1815;50.950;6.920;2023-08-06T06:37:24;18.10;99.90
3602;DHT22;1815;50.950;6.920;2023-08-06T06:39:49;18.20;99.90
3602;DHT22;1815;50.950;6.920;2023-08-06T06:42:15;18.20;99.90
3602;DHT22;1815;50.950;6.920;2023-08-06T06:44:44;18.30;99.90
3602;DHT22;1815;50.950;6.920;2023-08-06T06:47:10;18.30;99.90
3602;DHT22;1815;50.950;6.920;2023-08-06T06:49:36;18.40;99.90
3602;DHT22;1815;50.950;6.920;2023-08-06T06:52:01;18.40;99.90
3602;DHT22;1815;50.950;6.920;2023-08-06T06:54:28;18.40;99.90
3602;DHT22;1815;50.950;6.920;2023-08-06T06:56:54;18.50;99.90
3602;DHT22;1815;50.950;6.920;2023-08-06T06:59:20;18.50;99.90
3602;DHT22;1815;50.950;6.920;2023-08-06T07:01:45;18.50;99.90
3602;DHT22;1815;50.950;6.920;2023-08-06T07:04:11;18.50;99.90
3602;DHT22;1815;50.950;6.920;2023-08-06T07:06:37;18.50;99.90
3602;DHT22;1815;50.950;6.920;2023-08-06T07:09:03;18.50;99.90
3602;DHT22;1815;50.950;6.920;2023-08-06T07:11:28;18.50;99.90
3602;DHT22;1815;50.950;6.920;2023-08-06T07:13:57;18.50;99.90
3602;DHT22;1815;50.950;6.920;2023-08-06T07:16:24;18.50;99.90
3602;DHT22;1815;50.950;6.920;2023-08-06T07:18:52;18.60;99.90
3602;DHT22;1815;50.950;6.920;2023-08-06T07:21:18;18.60;99.90
3602;DHT22;1815;50.950;6.920;2023-08-06T07:23:44;18.60;99.90
3602;DHT22;1815;50.950;6.920;2023-08-06T07:26:10;18.60;99.90
3602;DHT22;1815;50.950;6.920;2023-08-06T07:28:36;18.60;99.90
3602;DHT22;1815;50.950;6.920;2023-08-06T07:31:02;18.70;99.90
3602;DHT22;1815;50.950;6.920;2023-08-06T07:33:28;18.70;99.90
3602;DHT22;1815;50.950;6.920;2023-08-06T07:35:54;18.70;99.90
3602;DHT22;1815;50.950;6.920;2023-08-06T07:38:20;18.80;99.90
3602;DHT22;1815;50.950;6.920;2023-08-06T07:40:46;18.80;99.90
3602;DHT22;1815;50.950;6.920;2023-08-06T07:43:11;18.90;99.90
3602;DHT22;1815;50.950;6.920;2023-08-06T07:45:37;19.00;99.90
3602;DHT22;1815;50.950;6.920;2023-08-06T07:48:03;19.10;99.90
3602;DHT22;1815;50.950;6.920;2023-08-06T07:50:29;19.20;99.90
3602;DHT22;1815;50.950;6.920;2023-08-06T07:52:55;19.30;99.90
3602;DHT22;1815;50.950;6.920;2023-08-06T07:55:21;19.50;99.90
3602;DHT22;1815;50.950;6.920;2023-08-06T07:57:46;19.60;99.90
3602;DHT22;1815;50.950;6.920;2023-08-06T08:00:12;19.80;99.90
3602;DHT22;1815;50.950;6.920;2023-08-06T08:02:40;19.90;99.90
3602;DHT22;1815;50.950;6.920;2023-08-06T08:05:06;20.10;99.90
3602;DHT22;1815;50.950;6.920;2023-08-06T08:07:33;20.20;99.90
3602;DHT22;1815;50.950;6.920;2023-08-06T08:09:59;20.20;99.90
3602;DHT22;1815;50.950;6.920;2023-08-06T08:12:25;20.20;99.90
3602;DHT22;1815;50.950;6.920;2023-08-06T08:14:50;20.20;99.90
3602;DHT22;1815;50.950;6.920;2023-08-06T08:17:16;20.20;99.90
3602;DHT22;1815;50.950;6.920;2023-08-06T08:19:43;20.20;99.90
3602;DHT22;1815;50.950;6.920;2023-08-06T08:22:08;20.20;99.90
3602;DHT22;1815;50.950;6.920;2023-08-06T08:24:34;20.20;99.90
3602;DHT22;1815;50.950;6.920;2023-08-06T08:27:00;20.30;99.90
3602;DHT22;1815;50.950;6.920;2023-08-06T08:29:26;20.30;99.90
3602;DHT22;1815;50.950;6.920;2023-08-06T08:31:52;20.40;99.90
3602;DHT22;1815;50.950;6.920;2023-08-06T08:34:17;20.40;99.90
3602;DHT22;1815;50.950;6.920;2023-08-06T08:36:44;20.40;99.90
3602;DHT22;1815;50.950;6.920;2023-08-06T08:39:15;20.40;99.90
3602;DHT22;1815;50.950;6.920;2023-08-06T08:41:41;20.40;99.90
3602;DHT22;1815;50.950;6.920;2023-08-06T08:44:10;20.40;99.90
3602;DHT22;1815;50.950;6.920;2023-08-06T08:46:37;20.50;99.90
3602;DHT22;1815;50.950;6.920;2023-08-06T08:49:04;20.60;99.90
3602;DHT22;1815;50.950;6.920;2023-08-06T08:51:30;20.60;99.90
3602;DHT22;1815;50.950;6.920;2023-08-06T08:53:56;20.70;99.90
3602;DHT22;1815;50.950;6.920;2023-08-06T08:56:23;20.70;99.90
3602;DHT22;1815;50.950;6.920;2023-08-06T08:58:49;20.80;99.90
3602;DHT22;1815;50.950;6.920;2023-08-06T09:01:16;20.90;99.90
3602;DHT22;1815;50.950;6.920;2023-08-06T09:03:43;20.90;99.90
3602;DHT22;1815;50.950;6.920;2023-08-06T09:06:11;21.00;99.90
3602;DHT22;1815;50.950;6.920;2023-08-06T09:08:41;21.00;99.90
3602;DHT22;1815;50.950;6.920;2023-08-06T09:11:09;21.00;99.90
3602;DHT22;1815;50.950;6.920;2023-08-06T09:13:37;21.00;99.90
3602;DHT22;1815;50.950;6.920;2023-08-06T09:16:03;21.00;99.90
3602;DHT22;1815;50.950;6.920;2023-08-06T09:18:30;21.00;99.90
3602;DHT22;1815;50.950;6.920;2023-08-06T09:20:56;20.90;99.90
3602;DHT22;1815;50.950;6.920;2023-08-06T09:23:29;20.90;99.90
3602;DHT22;1815;50.950;6.920;2023-08-06T09:25:59;20.90;99.90
3602;DHT22;1815;50.950;6.920;2023-08-06T09:28:36;20.90;99.90
3602;DHT22;1815;50.950;6.920;2023-08-06T09:31:03;20.80;99.90
3602;DHT22;1815;50.950;6.920;2023-08-06T09:33:29;20.70;99.90
3602;DHT22;1815;50.950;6.920;2023-08-06T09:35:55;20.60;99.90
3602;DHT22;1815;50.950;6.920;2023-08-06T09:38:21;20.50;99.90
3602;DHT22;1815;50.950;6.920;2023-08-06T09:40:47;20.30;99.90
3602;DHT22;1815;50.950;6.920;2023-08-06T09:43:13;20.20;99.90
3602;DHT22;1815;50.950;6.920;2023-08-06T09:45:39;20.10;99.90
3602;DHT22;1815;50.950;6.920;2023-08-06T09:48:14;20.10;99.90
3602;DHT22;1815;50.950;6.920;2023-08-06T09:50:40;20.10;99.90
3602;DHT22;1815;50.950;6.920;2023-08-06T09:53:07;20.00;99.90
3602;DHT22;1815;50.950;6.920;2023-08-06T09:55:34;20.10;99.90
3602;DHT22;1815;50.950;6.920;2023-08-06T09:58:00;20.10;99.90
3602;DHT22;1815;50.950;6.920;2023-08-06T10:00:27;20.10;99.90
3602;DHT22;1815;50.950;6.920;2023-08-06T10:02:54;20.20;99.90
3602;DHT22;1815;50.950;6.920;2023-08-06T10:05:22;20.20;99.90
3602;DHT22;1815;50.950;6.920;2023-08-06T10:07:49;20.20;99.90
3602;DHT22;1815;50.950;6.920;2023-08-06T10:10:18;20.10;99.90
3602;DHT22;1815;50.950;6.920;2023-08-06T10:12:50;19.90;99.90
3602;DHT22;1815;50.950;6.920;2023-08-06T10:15:24;19.80;99.90
3602;DHT22;1815;50.950;6.920;2023-08-06T10:17:53;19.50;99.90
3602;DHT22;1815;50.950;6.920;2023-08-06T10:20:20;19.30;99.90
3602;DHT22;1815;50.950;6.920;2023-08-06T10:23:03;19.00;99.90
3602;DHT22;1815;50.950;6.920;2023-08-06T10:25:33;18.80;99.90
3602;DHT22;1815;50.950;6.920;2023-08-06T10:28:00;18.60;99.90
3602;DHT22;1815;50.950;6.920;2023-08-06T10:30:32;18.40;99.90
3602;DHT22;1815;50.950;6.920;2023-08-06T10:33:00;18.20;99.90
3602;DHT22;1815;50.950;6.920;2023-08-06T10:35:32;18.10;99.90
3602;DHT22;1815;50.950;6.920;2023-08-06T10:40:32;17.80;99.90
3602;DHT22;1815;50.950;6.920;2023-08-06T10:42:59;17.70;99.90
3602;DHT22;1815;50.950;6.920;2023-08-06T10:45:27;17.70;99.90
3602;DHT22;1815;50.950;6.920;2023-08-06T10:47:55;17.60;99.90
3602;DHT22;1815;50.950;6.920;2023-08-06T10:50:22;17.50;99.90
3602;DHT22;1815;50.950;6.920;2023-08-06T10:52:48;17.40;99.90
3602;DHT22;1815;50.950;6.920;2023-08-06T10:55:14;17.40;99.90
3602;DHT22;1815;50.950;6.920;2023-08-06T10:57:47;17.30;99.90
3602;DHT22;1815;50.950;6.920;2023-08-06T11:00:13;17.20;99.90
3602;DHT22;1815;50.950;6.920;2023-08-06T11:02:39;17.10;99.90
3602;DHT22;1815;50.950;6.920;2023-08-06T11:05:09;17.10;99.90
3602;DHT22;1815;50.950;6.920;2023-08-06T11:07:35;17.10;99.90
3602;DHT22;1815;50.950;6.920;2023-08-06T11:10:06;17.00;99.90
3602;DHT22;1815;50.950;6.920;2023-08-06T11:12:32;17.00;99.90
3602;DHT22;1815;50.950;6.920;2023-08-06T11:14:59;17.00;99.90
3602;DHT22;1815;50.950;6.920;2023-08-06T11:17:25;16.90;99.90
3602;DHT22;1815;50.950;6.920;2023-08-06T11:19:52;16.90;99.90
3602;DHT22;1815;50.950;6.920;2023-08-06T11:22:21;16.90;99.90
3602;DHT22;1815;50.950;6.920;2023-08-06T11:24:48;16.90;99.90
3602;DHT22;1815;50.950;6.920;2023-08-06T11:27:14;17.00;99.90
3602;DHT22;1815;50.950;6.920;2023-08-06T11:29:41;17.00;99.90
3602;DHT22;1815;50.950;6.920;2023-08-06T11:32:08;17.00;99.90
3602;DHT22;1815;50.950;6.920;2023-08-06T11:34:34;17.10;99.90
3602;DHT22;1815;50.950;6.920;2023-08-06T11:37:00;17.20;99.90
3602;DHT22;1815;50.950;6.920;2023-08-06T11:39:27;17.20;99.90
3602;DHT22;1815;50.950;6.920;2023-08-06T11:41:52;17.30;99.90
3602;DHT22;1815;50.950;6.920;2023-08-06T11:44:19;17.40;99.90
3602;DHT22;1815;50.950;6.920;2023-08-06T11:46:54;17.40;99.90
3602;DHT22;1815;50.950;6.920;2023-08-06T11:49:47;17.50;99.90
3602;DHT22;1815;50.950;6.920;2023-08-06T11:54:44;17.70;99.90
3602;DHT22;1815;50.950;6.920;2023-08-06T11:57:11;17.70;99.90
3602;DHT22;1815;50.950;6.920;2023-08-06T11:59:38;17.80;99.90
3602;DHT22;1815;50.950;6.920;2023-08-06T12:02:05;17.80;99.90
3602;DHT22;1815;50.950;6.920;2023-08-06T12:04:31;17.90;99.90
3602;DHT22;1815;50.950;6.920;2023-08-06T12:07:16;18.00;99.90
3602;DHT22;1815;50.950;6.920;2023-08-06T12:09:42;18.10;99.90
3602;DHT22;1815;50.950;6.920;2023-08-06T12:12:07;18.20;99.90
3602;DHT22;1815;50.950;6.920;2023-08-06T12:14:33;18.30;99.90
3602;DHT22;1815;50.950;6.920;2023-08-06T12:16:59;18.40;99.90
3602;DHT22;1815;50.950;6.920;2023-08-06T12:19:26;18.50;99.90
3602;DHT22;1815;50.950;6.920;2023-08-06T12:21:52;18.70;99.90
3602;DHT22;1815;50.950;6.920;2023-08-06T12:24:18;18.80;99.90
3602;DHT22;1815;50.950;6.920;2023-08-06T12:26:43;18.80;99.90
3602;DHT22;1815;50.950;6.920;2023-08-06T12:29:09;18.90;99.90
3602;DHT22;1815;50.950;6.920;2023-08-06T12:31:35;18.90;99.90
3602;DHT22;1815;50.950;6.920;2023-08-06T12:34:00;19.00;99.90
3602;DHT22;1815;50.950;6.920;2023-08-06T12:36:27;19.00;99.90
3602;DHT22;1815;50.950;6.920;2023-08-06T12:38:52;19.00;99.90
3602;DHT22;1815;50.950;6.920;2023-08-06T12:41:22;19.00;99.90
3602;DHT22;1815;50.950;6.920;2023-08-06T12:43:48;18.90;99.90
3602;DHT22;1815;50.950;6.920;2023-08-06T12:46:15;18.90;99.90
3602;DHT22;1815;50.950;6.920;2023-08-06T12:48:41;18.80;99.90
3602;DHT22;1815;50.950;6.920;2023-08-06T12:51:06;18.70;99.90
3602;DHT22;1815;50.950;6.920;2023-08-06T12:53:32;18.70;99.90
3602;DHT22;1815;50.950;6.920;2023-08-06T12:55:58;18.60;99.90
3602;DHT22;1815;50.950;6.920;2023-08-06T12:58:23;18.70;99.90
3602;DHT22;1815;50.950;6.920;2023-08-06T13:00:49;18.60;99.90
3602;DHT22;1815;50.950;6.920;2023-08-06T13:03:15;18.60;99.90
3602;DHT22;1815;50.950;6.920;2023-08-06T13:05:40;18.70;99.90
3602;DHT22;1815;50.950;6.920;2023-08-06T13:08:06;18.70;99.90
3602;DHT22;1815;50.950;6.920;2023-08-06T13:10:32;18.70;99.90
3602;DHT22;1815;50.950;6.920;2023-08-06T13:12:58;18.80;99.90
3602;DHT22;1815;50.950;6.920;2023-08-06T13:15:23;18.90;99.90
3602;DHT22;1815;50.950;6.920;2023-08-06T13:17:49;18.90;99.90
3602;DHT22;1815;50.950;6.920;2023-08-06T13:20:15;19.00;99.90
3602;DHT22;1815;50.950;6.920;2023-08-06T13:22:40;19.10;99.90
3602;DHT22;1815;50.950;6.920;2023-08-06T13:25:06;19.10;99.90
3602;DHT22;1815;50.950;6.920;2023-08-06T13:27:32;19.10;99.90
3602;DHT22;1815;50.950;6.920;2023-08-06T13:29:58;19.10;99.90
3602;DHT22;1815;50.950;6.920;2023-08-06T13:32:24;19.10;99.90
3602;DHT22;1815;50.950;6.920;2023-08-06T13:34:50;19.10;99.90
3602;DHT22;1815;50.950;6.920;2023-08-06T13:37:15;19.10;99.90
3602;DHT22;1815;50.950;6.920;2023-08-06T13:39:41;19.00;99.90
3602;DHT22;1815;50.950;6.920;2023-08-06T13:42:07;18.90;99.90
3602;DHT22;1815;50.950;6.920;2023-08-06T13:44:32;18.80;99.90
3602;DHT22;1815;50.950;6.920;2023-08-06T13:47:01;18.80;99.90
3602;DHT22;1815;50.950;6.920;2023-08-06T13:49:27;18.60;99.90
3602;DHT22;1815;50.950;6.920;2023-08-06T13:51:53;18.50;99.90
3602;DHT22;1815;50.950;6.920;2023-08-06T13:54:19;18.30;99.90
3602;DHT22;1815;50.950;6.920;2023-08-06T13:56:46;18.30;99.90
3602;DHT22;1815;50.950;6.920;2023-08-06T13:59:12;18.20;99.90
3602;DHT22;1815;50.950;6.920;2023-08-06T14:01:39;18.20;99.90
3602;DHT22;1815;50.950;6.920;2023-08-06T14:04:05;18.10;99.90
3602;DHT22;1815;50.950;6.920;2023-08-06T14:06:31;18.10;99.90
3602;DHT22;1815;50.950;6.920;2023-08-06T14:08:57;18.10;99.90
3602;DHT22;1815;50.950;6.920;2023-08-06T14:11:22;18.10;99.90
3602;DHT22;1815;50.950;6.920;2023-08-06T14:13:48;18.10;99.90
3602;DHT22;1815;50.950;6.920;2023-08-06T14:16:14;18.20;99.90
3602;DHT22;1815;50.950;6.920;2023-08-06T14:18:39;18.30;99.90
3602;DHT22;1815;50.950;6.920;2023-08-06T14:21:06;18.30;99.90
3602;DHT22;1815;50.950;6.920;2023-08-06T14:23:32;18.30;99.90
3602;DHT22;1815;50.950;6.920;2023-08-06T14:25:58;18.40;99.90
3602;DHT22;1815;50.950;6.920;2023-08-06T14:28:23;18.50;99.90
3602;DHT22;1815;50.950;6.920;2023-08-06T14:30:49;18.50;99.90
3602;DHT22;1815;50.950;6.920;2023-08-06T14:33:15;18.50;99.90
3602;DHT22;1815;50.950;6.920;2023-08-06T14:35:40;18.50;99.90
3602;DHT22;1815;50.950;6.920;2023-08-06T14:38:06;18.50;99.90
3602;DHT22;1815;50.950;6.920;2023-08-06T14:40:32;18.50;99.90
3602;DHT22;1815;50.950;6.920;2023-08-06T14:43:07;18.50;99.90
3602;DHT22;1815;50.950;6.920;2023-08-06T14:45:33;18.40;99.90
3602;DHT22;1815;50.950;6.920;2023-08-06T14:47:58;18.40;99.90
3602;DHT22;1815;50.950;6.920;2023-08-06T14:50:24;18.30;99.90
3602;DHT22;1815;50.950;6.920;2023-08-06T14:52:50;18.30;99.90
3602;DHT22;1815;50.950;6.920;2023-08-06T14:55:25;18.40;99.90
3602;DHT22;1815;50.950;6.920;2023-08-06T14:57:52;18.40;99.90
3602;DHT22;1815;50.950;6.920;2023-08-06T15:00:19;18.50;99.90
3602;DHT22;1815;50.950;6.920;2023-08-06T15:02:45;18.60;99.90
3602;DHT22;1815;50.950;6.920;2023-08-06T15:05:11;18.60;99.90
3602;DHT22;1815;50.950;6.920;2023-08-06T15:07:36;18.70;99.90
3602;DHT22;1815;50.950;6.920;2023-08-06T15:10:04;18.80;99.90
3602;DHT22;1815;50.950;6.920;2023-08-06T15:12:31;18.90;99.90
3602;DHT22;1815;50.950;6.920;2023-08-06T15:14:58;19.00;99.90
3602;DHT22;1815;50.950;6.920;2023-08-06T15:17:24;19.00;99.90
3602;DHT22;1815;50.950;6.920;2023-08-06T15:19:50;19.10;99.90
3602;DHT22;1815;50.950;6.920;2023-08-06T15:22:16;19.10;99.90
3602;DHT22;1815;50.950;6.920;2023-08-06T15:24:42;19.10;99.90
3602;DHT22;1815;50.950;6.920;2023-08-06T15:27:08;19.10;99.90
3602;DHT22;1815;50.950;6.920;2023-08-06T15:29:34;19.10;99.90
3602;DHT22;1815;50.950;6.920;2023-08-06T15:32:00;19.10;99.90
3602;DHT22;1815;50.950;6.920;2023-08-06T15:34:26;19.10;99.90
3602;DHT22;1815;50.950;6.920;2023-08-06T15:36:52;19.20;99.90
3602;DHT22;1815;50.950;6.920;2023-08-06T15:39:18;19.20;99.90
3602;DHT22;1815;50.950;6.920;2023-08-06T15:41:43;19.20;99.90
3602;DHT22;1815;50.950;6.920;2023-08-06T15:44:09;19.20;99.90
3602;DHT22;1815;50.950;6.920;2023-08-06T15:46:35;19.20;99.90
3602;DHT22;1815;50.950;6.920;2023-08-06T15:49:02;19.20;99.90
3602;DHT22;1815;50.950;6.920;2023-08-06T15:51:28;19.20;99.90
3602;DHT22;1815;50.950;6.920;2023-08-06T15:53:53;19.20;99.90
3602;DHT22;1815;50.950;6.920;2023-08-06T15:56:19;19.20;99.90
3602;DHT22;1815;50.950;6.920;2023-08-06T15:58:45;19.10;99.90
3602;DHT22;1815;50.950;6.920;2023-08-06T16:01:11;19.00;99.90
3602;DHT22;1815;50.950;6.920;2023-08-06T16:03:37;18.90;99.90
3602;DHT22;1815;50.950;6.920;2023-08-06T16:06:05;18.80;99.90
3602;DHT22;1815;50.950;6.920;2023-08-06T16:08:30;18.70;99.90
3602;DHT22;1815;50.950;6.920;2023-08-06T16:10:56;18.60;99.90